Time;durP1;ratioP1;P1;durP2;ratioP2;P2;SDS_P1;SDS_P2;PMS_P1;PMS_P2;Temp;Humidity;BMP_temperature;BMP_pressure;BME280_temperature;BME280_humidity;BME280_pressure;Samples;Min_cycle;Max_cycle;Signal;HPM_P1;HPM_P2
2022/01/27 00:01:57;;;;;;;13.43;9.97;;;;;;;2.26;50.83;100272.78;6305982;22;20438;-77
2022/01/27 00:04:30;;;;;;;10.63;8.23;;;;;;;2.16;51.04;100261.31;6306031;22;19999;-77
2022/01/27 00:06:56;;;;;;;11.03;8.77;;;;;;;2.74;51.28;100361.50;6306155;22;19999;-77
2022/01/27 00:09:37;;;;;;;12.13;9.37;;;;;;;2.34;50.91;100290.50;6306346;22;20416;-77
2022/01/27 00:12:03;;;;;;;10.90;8.93;;;;;;;2.78;51.20;100376.81;6305711;22;19999;-77
2022/01/27 00:14:28;;;;;;;13.60;9.63;;;;;;;2.81;50.91;100368.78;6306038;22;20228;-77
2022/01/27 00:16:59;;;;;;;13.80;10.40;;;;;;;2.54;50.89;100319.41;6305948;22;20000;-76
2022/01/27 00:19:25;;;;;;;11.13;8.93;;;;;;;2.80;50.88;100367.13;6306202;22;20002;-77
2022/01/27 00:21:51;;;;;;;13.47;10.17;;;;;;;2.44;50.89;100312.34;6306104;22;20060;-77
2022/01/27 00:24:17;;;;;;;12.10;9.57;;;;;;;2.81;51.30;100367.94;6278512;22;20444;-77
2022/01/27 00:26:43;;;;;;;12.97;9.70;;;;;;;2.81;50.97;100366.19;6278580;22;19995;-77
2022/01/27 00:29:08;;;;;;;12.27;9.00;;;;;;;2.81;50.82;100365.34;6305993;22;19999;-77
2022/01/27 00:31:34;;;;;;;13.80;9.60;;;;;;;2.21;50.93;100257.44;6305849;22;20328;-77
2022/01/27 00:34:03;;;;;;;13.73;10.23;;;;;;;2.50;50.86;100306.72;6305993;22;20078;-77
2022/01/27 00:36:30;;;;;;;11.60;9.60;;;;;;;2.67;51.08;100340.25;6306068;22;20466;-77
2022/01/27 00:38:56;;;;;;;14.93;10.60;;;;;;;2.59;50.81;100326.09;6305978;22;20030;-77
2022/01/27 00:41:22;;;;;;;12.33;9.20;;;;;;;2.52;51.00;100305.66;6305965;22;19991;-77
2022/01/27 00:43:49;;;;;;;12.33;9.70;;;;;;;2.89;51.14;100368.25;6306012;22;19999;-77
2022/01/27 00:46:16;;;;;;;13.27;10.80;;;;;;;2.86;51.16;100365.84;6305831;22;20406;-78
2022/01/27 00:48:44;;;;;;;13.57;10.00;;;;;;;2.78;51.33;100374.22;6305804;22;20070;-77
2022/01/27 00:51:11;;;;;;;11.33;9.13;;;;;;;2.46;51.24;100316.53;6306044;22;20015;-77
2022/01/27 00:53:50;;;;;;;13.97;10.20;;;;;;;2.38;51.35;100318.84;6305887;22;19995;-77
2022/01/27 01:01:23;;;;;;;12.75;9.80;;;;;;;2.64;51.56;100332.63;6305661;22;20007;-78
2022/01/27 01:03:51;;;;;;;13.50;10.53;;;;;;;2.82;51.26;100360.03;6305613;22;20006;-77
2022/01/27 01:16:41;;;;;;;14.93;10.87;;;;;;;2.28;51.56;100263.09;6305718;22;20009;-78
2022/01/27 01:32:59;;;;;;;14.57;10.63;;;;;;;2.55;52.35;100315.03;6305422;22;20026;-77
2022/01/27 01:35:29;;;;;;;15.37;11.47;;;;;;;2.55;52.21;100338.50;6278452;22;19999;-77
2022/01/27 01:37:58;;;;;;;13.37;10.00;;;;;;;2.26;52.29;100272.78;6305481;22;20074;-77
2022/01/27 01:40:24;;;;;;;14.57;10.33;;;;;;;2.39;52.05;100294.44;6305611;22;20432;-77
2022/01/27 01:42:50;;;;;;;15.30;11.03;;;;;;;2.63;52.22;100325.75;6278170;22;20348;-77
2022/01/27 01:45:18;;;;;;;15.10;11.17;;;;;;;2.58;52.13;100327.03;6306557;22;19999;-78
2022/01/27 01:47:45;;;;;;;14.00;10.53;;;;;;;2.62;52.12;100325.88;6307344;22;20445;-78
2022/01/27 01:50:11;;;;;;;13.97;10.43;;;;;;;2.67;52.51;100332.44;6279986;22;19995;-78
2022/01/27 01:52:37;;;;;;;15.30;10.77;;;;;;;2.47;52.24;100296.50;6307253;22;20015;-77
2022/01/27 01:55:06;;;;;;;13.10;10.60;;;;;;;2.66;52.16;100332.53;6279984;22;20011;-77
2022/01/27 01:57:31;;;;;;;14.23;10.60;;;;;;;2.25;52.68;100276.31;6280000;22;20086;-77
2022/01/27 01:59:58;;;;;;;13.90;10.80;;;;;;;2.66;52.43;100330.75;6307579;22;20026;-77
2022/01/27 02:02:23;;;;;;;14.63;10.50;;;;;;;2.39;52.43;100286.63;6280569;22;20066;-77
2022/01/27 02:04:48;;;;;;;14.17;10.40;;;;;;;2.54;52.18;100311.59;6308799;22;20425;-77
2022/01/27 02:07:30;;;;;;;13.73;10.27;;;;;;;2.63;52.70;100315.34;6333217;22;19983;-77
2022/01/27 02:18:06;;;;;;;14.30;10.73;;;;;;;2.18;52.62;100249.84;6306918;22;20009;-77
2022/01/27 02:20:34;;;;;;;14.20;10.57;;;;;;;2.30;52.62;100263.81;6306907;22;19991;-77
2022/01/27 02:23:00;;;;;;;15.07;10.57;;;;;;;2.61;52.23;100316.38;6307135;22;19999;-76
2022/01/27 02:25:26;;;;;;;13.47;10.90;;;;;;;2.44;52.51;100294.94;6307654;22;20517;-77
2022/01/27 02:27:53;;;;;;;14.97;10.83;;;;;;;2.60;52.55;100314.72;6307138;22;19995;-77
2022/01/27 02:30:19;;;;;;;14.10;9.90;;;;;;;2.37;52.57;100282.44;6307165;22;20002;-78
2022/01/27 02:32:45;;;;;;;14.87;11.00;;;;;;;2.00;52.62;100216.44;6307037;22;19995;-77
2022/01/27 02:35:11;;;;;;;13.30;10.10;;;;;;;2.67;52.75;100323.78;6307112;22;20442;-77
2022/01/27 02:37:37;;;;;;;13.90;10.43;;;;;;;2.36;52.63;100267.75;6307061;22;19999;-77
2022/01/27 02:40:04;;;;;;;14.90;10.60;;;;;;;2.21;52.60;100231.38;6306921;22;20456;-77
2022/01/27 02:42:32;;;;;;;13.40;9.80;;;;;;;2.62;52.29;100298.03;6279690;22;20023;-78
2022/01/27 02:45:11;;;;;;;13.47;10.37;;;;;;;2.72;52.72;100324.28;6307274;22;20047;-77
2022/01/27 02:47:36;;;;;;;13.70;9.73;;;;;;;2.17;52.60;100235.16;6306817;22;19999;-77
2022/01/27 02:50:03;;;;;;;16.00;10.83;;;;;;;2.47;52.48;100279.09;6307034;22;20002;-77
2022/01/27 02:52:28;;;;;;;12.87;10.17;;;;;;;2.30;52.48;100266.41;6279343;22;20094;-78
2022/01/27 02:54:54;;;;;;;15.20;10.03;;;;;;;2.33;52.60;100255.78;6279372;22;20027;-78
2022/01/27 02:57:20;;;;;;;13.70;9.63;;;;;;;2.71;52.82;100297.38;6306255;22;20462;-77
2022/01/27 02:59:45;;;;;;;15.73;10.33;;;;;;;2.82;52.45;100307.88;6306759;22;20011;-77
2022/01/27 03:02:11;;;;;;;15.13;11.03;;;;;;;2.84;52.58;100310.38;6306410;22;20056;-77
2022/01/27 03:04:37;;;;;;;16.67;10.90;;;;;;;2.83;52.56;100313.91;6306522;22;20010;-77
2022/01/27 03:07:05;;;;;;;14.53;9.57;;;;;;;2.86;52.44;100316.31;6279276;22;20107;-78
2022/01/27 03:09:31;;;;;;;14.93;10.40;;;;;;;2.84;52.62;100313.81;6307016;22;19991;-77
2022/01/27 03:12:06;;;;;;;17.13;10.73;;;;;;;2.75;52.58;100298.81;6306806;22;20025;-77
2022/01/27 03:14:33;;;;;;;16.67;11.73;;;;;;;2.46;52.48;100243.53;6279379;22;20348;-77
2022/01/27 03:17:00;;;;;;;15.93;11.37;;;;;;;2.89;52.81;100316.09;6307166;22;20329;-77
2022/01/27 03:19:27;;;;;;;16.63;11.13;;;;;;;2.84;52.76;100316.41;6306664;22;20433;-77
2022/01/27 03:21:54;;;;;;;12.77;10.07;;;;;;;2.54;52.83;100269.06;6306797;22;19991;-77
2022/01/27 03:24:21;;;;;;;13.30;10.00;;;;;;;2.45;52.90;100254.91;6306737;22;19995;-77
2022/01/27 03:26:47;;;;;;;15.80;10.63;;;;;;;2.59;52.89;100274.78;6306581;22;20033;-77
2022/01/27 03:29:15;;;;;;;14.83;10.33;;;;;;;2.33;53.12;100237.53;6306680;22;19995;-78
2022/01/27 03:31:41;;;;;;;13.70;9.87;;;;;;;2.81;53.08;100302.75;6279196;22;20355;-77
2022/01/27 03:34:06;;;;;;;14.93;10.10;;;;;;;2.48;52.87;100262.50;6306679;22;20022;-77
2022/01/27 03:36:32;;;;;;;13.37;9.80;;;;;;;2.82;53.14;100323.50;6306387;22;19998;-77
2022/01/27 03:38:57;;;;;;;15.07;11.07;;;;;;;2.79;53.20;100302.03;6306568;22;19995;-77
2022/01/27 03:41:23;;;;;;;14.67;9.97;;;;;;;2.64;53.11;100277.91;6306632;22;20445;-77
2022/01/27 03:43:50;;;;;;;13.13;9.40;;;;;;;2.69;53.31;100288.00;6306910;22;20003;-77
2022/01/27 03:46:17;;;;;;;12.93;9.20;;;;;;;2.87;53.19;100317.97;6306693;22;19999;-77
2022/01/27 03:48:42;;;;;;;14.90;10.97;;;;;;;2.91;52.91;100329.00;6278704;22;20080;-77
2022/01/27 03:51:08;;;;;;;14.70;10.43;;;;;;;1.98;52.74;100176.66;6305923;22;20007;-77
2022/01/27 03:53:33;;;;;;;14.70;10.57;;;;;;;2.50;52.95;100262.41;6306112;22;20524;-77
2022/01/27 03:55:59;;;;;;;14.10;9.97;;;;;;;2.49;52.72;100245.94;6306131;22;19999;-77
2022/01/27 03:58:25;;;;;;;15.20;10.90;;;;;;;2.84;53.16;100320.78;6306318;22;20010;-77
2022/01/27 04:00:50;;;;;;;16.80;11.40;;;;;;;2.80;52.83;100306.31;6278673;22;20070;-78
2022/01/27 04:03:17;;;;;;;14.63;10.20;;;;;;;2.78;53.25;100296.00;6278489;22;19999;-77
2022/01/27 04:05:50;;;;;;;15.17;10.60;;;;;;;2.91;52.73;100314.19;6305960;22;20074;-77
2022/01/27 04:08:16;;;;;;;13.23;9.47;;;;;;;2.81;52.81;100306.19;6305905;22;20003;-77
2022/01/27 04:10:42;;;;;;;14.47;10.20;;;;;;;2.74;52.93;100304.13;6305904;22;20467;-77
2022/01/27 04:13:09;;;;;;;16.73;12.13;;;;;;;2.86;53.23;100326.72;6306102;22;20005;-77
2022/01/27 04:15:36;;;;;;;16.07;11.90;;;;;;;2.32;53.21;100241.09;6306006;22;20447;-77
2022/01/27 04:18:03;;;;;;;15.77;12.17;;;;;;;2.84;53.45;100319.03;6305932;22;20002;-77
2022/01/27 04:20:28;;;;;;;17.17;12.97;;;;;;;2.65;53.46;100303.03;6306036;22;19991;-77
2022/01/27 04:22:54;;;;;;;14.93;11.67;;;;;;;2.35;53.08;100253.91;6306026;22;20005;-77
2022/01/27 04:25:19;;;;;;;15.93;11.23;;;;;;;2.58;53.58;100280.09;6305636;22;20002;-78
2022/01/27 04:27:55;;;;;;;16.60;12.53;;;;;;;2.46;53.50;100267.00;6278498;22;20006;-77
2022/01/27 04:30:23;;;;;;;15.10;11.27;;;;;;;2.79;54.00;100339.38;6278668;22;19999;-77
2022/01/27 04:32:53;;;;;;;15.47;10.43;;;;;;;2.44;53.57;100284.53;6278722;22;20403;-77
2022/01/27 04:35:21;;;;;;;14.87;10.70;;;;;;;2.79;53.90;100338.53;6306049;22;19999;-77
2022/01/27 04:41:08;;;;;;;17.00;12.07;;;;;;;2.51;53.68;100297.94;6181633;23;20447;-77
2022/01/27 04:43:54;;;;;;;17.33;12.63;;;;;;;2.53;54.21;100317.75;6181629;23;20005;-77
2022/01/27 04:46:36;;;;;;;17.90;11.83;;;;;;;2.48;54.30;100322.47;6269934;22;20252;-77
2022/01/27 04:49:04;;;;;;;16.45;12.15;;;;;;;2.59;54.01;100320.88;6305578;22;20444;-77
2022/01/27 04:51:30;;;;;;;16.87;11.50;;;;;;;2.12;54.21;100252.88;6305339;22;20018;-77
2022/01/27 04:56:40;;;;;;;15.13;11.53;;;;;;;2.60;54.12;100338.19;6305700;22;20005;-77
2022/01/27 04:59:15;;;;;;;14.00;10.83;;;;;;;2.82;54.13;100365.25;6305721;22;19995;-77
2022/01/27 05:01:55;;;;;;;15.57;11.83;;;;;;;2.39;54.06;100296.22;6305797;22;20502;-78
2022/01/27 05:04:23;;;;;;;55.00;28.30;;;;;;;2.37;53.95;100301.53;6278460;22;19999;-77
2022/01/27 05:06:49;;;;;;;37.20;22.10;;;;;;;2.51;54.09;100314.44;6305551;22;20125;-77
2022/01/27 05:09:15;;;;;;;22.03;14.63;;;;;;;2.80;54.06;100361.06;6305991;22;20070;-77
2022/01/27 05:12:21;;;;;;;15.23;11.20;;;;;;;2.81;54.15;100376.59;6305787;22;20031;-77
2022/01/27 05:14:32;;;;;;;15.57;11.77;;;;;;;2.82;53.98;100364.41;6298294;22;20006;-76
2022/01/27 05:16:57;;;;;;;14.93;11.33;;;;;;;2.50;54.12;100317.13;6278684;22;20003;-77
2022/01/27 05:19:22;;;;;;;14.53;11.50;;;;;;;2.40;54.28;100311.75;6305271;22;20436;-77
2022/01/27 05:21:48;;;;;;;15.93;11.67;;;;;;;2.81;54.63;100386.22;6305724;22;19999;-78
2022/01/27 05:24:14;;;;;;;14.73;11.17;;;;;;;2.82;54.14;100387.88;6305902;22;19996;-77
2022/01/27 05:26:40;;;;;;;16.93;11.73;;;;;;;2.48;54.51;100332.06;6305398;22;19996;-77
2022/01/27 05:29:08;;;;;;;18.43;11.70;;;;;;;2.33;54.15;100317.47;6305698;22;20074;-77
2022/01/27 05:31:33;;;;;;;16.10;11.97;;;;;;;2.53;54.45;100349.03;6305592;22;20009;-77
2022/01/27 05:33:59;;;;;;;16.43;12.70;;;;;;;2.84;54.54;100401.63;6278167;22;20000;-77
2022/01/27 05:36:37;;;;;;;17.37;12.63;;;;;;;2.86;54.59;100394.53;6305681;22;19995;-77
2022/01/27 05:39:24;;;;;;;18.50;13.73;;;;;;;2.27;54.26;100308.31;6279400;22;20007;-77
2022/01/27 05:41:49;;;;;;;19.70;14.83;;;;;;;2.52;54.56;100364.78;6305571;22;20002;-77
2022/01/27 05:44:14;;;;;;;20.70;15.03;;;;;;;2.59;54.40;100355.59;6305781;22;20065;-77
2022/01/27 05:46:40;;;;;;;18.87;14.33;;;;;;;2.86;54.59;100394.53;6305626;22;19995;-77
2022/01/27 05:49:05;;;;;;;19.87;13.63;;;;;;;2.75;54.49;100365.78;6305596;22;19995;-77
2022/01/27 05:51:31;;;;;;;17.87;13.00;;;;;;;2.63;54.69;100343.19;6305390;22;20011;-77
2022/01/27 05:53:56;;;;;;;24.77;16.63;;;;;;;2.80;54.59;100371.50;6278228;22;20003;-77
2022/01/27 05:56:21;;;;;;;22.53;15.23;;;;;;;2.62;54.62;100344.94;6305584;22;19999;-77
2022/01/27 05:58:47;;;;;;;23.40;16.40;;;;;;;2.93;54.38;100390.56;6305249;22;20463;-77
2022/01/27 06:01:13;;;;;;;21.33;14.93;;;;;;;2.73;54.81;100346.81;6305515;22;20070;-77
2022/01/27 06:03:39;;;;;;;20.43;15.73;;;;;;;2.55;54.65;100318.47;6305476;22;20358;-78
2022/01/27 06:06:04;;;;;;;21.17;16.17;;;;;;;3.04;54.32;100398.47;6305251;22;20000;-77
2022/01/27 06:08:30;;;;;;;23.23;16.60;;;;;;;3.14;54.53;100403.88;6305497;22;19995;-77
2022/01/27 06:10:57;;;;;;;38.30;25.37;;;;;;;2.72;54.46;100330.31;6305360;22;20017;-77
2022/01/27 06:13:23;;;;;;;29.57;21.03;;;;;;;3.22;54.67;100405.94;6277948;22;20452;-77
2022/01/27 06:15:48;;;;;;;29.90;21.83;;;;;;;2.94;54.59;100357.47;6305896;22;20432;-77
2022/01/27 06:18:14;;;;;;;23.60;17.40;;;;;;;3.08;54.50;100378.22;6305524;22;19995;-77
2022/01/27 06:20:42;;;;;;;20.53;15.57;;;;;;;3.28;54.29;100398.50;6305421;22;19995;-77
2022/01/27 06:23:08;;;;;;;24.00;17.10;;;;;;;3.16;54.05;100371.50;6305305;22;19995;-77
2022/01/27 06:25:33;;;;;;;23.97;15.10;;;;;;;2.99;54.20;100347.59;6304798;22;19995;-78
2022/01/27 06:27:59;;;;;;;21.53;15.40;;;;;;;3.40;54.44;100417.66;6304475;22;19995;-77
2022/01/27 06:30:24;;;;;;;20.37;14.53;;;;;;;3.35;54.06;100410.16;6305033;22;20007;-77
2022/01/27 06:32:50;;;;;;;19.43;13.33;;;;;;;3.05;54.17;100365.41;6306704;22;20507;-77
2022/01/27 06:35:15;;;;;;;19.00;13.90;;;;;;;3.12;54.08;100379.69;6307644;22;20029;-77
2022/01/27 06:37:43;;;;;;;20.87;14.50;;;;;;;3.32;54.18;100414.78;6306570;22;20023;-77
2022/01/27 06:40:10;;;;;;;23.43;14.47;;;;;;;3.33;53.64;100419.88;6307648;22;20023;-77
2022/01/27 06:42:36;;;;;;;19.50;13.03;;;;;;;3.34;54.41;100420.72;6306985;22;20373;-77
2022/01/27 06:45:04;;;;;;;20.37;13.50;;;;;;;3.03;53.65;100364.69;6307736;22;20006;-78
2022/01/27 06:47:29;;;;;;;20.67;13.87;;;;;;;3.26;54.08;100404.78;6307002;22;19999;-77
2022/01/27 06:49:55;;;;;;;21.40;14.63;;;;;;;3.58;54.06;100447.66;6306617;22;20353;-77
2022/01/27 06:52:22;;;;;;;21.60;14.83;;;;;;;3.41;54.12;100421.94;6305279;22;20019;-77
2022/01/27 06:54:49;;;;;;;27.07;17.70;;;;;;;3.12;53.60;100383.13;6304975;22;20005;-77
2022/01/27 06:57:15;;;;;;;24.00;17.07;;;;;;;3.09;53.72;100375.50;6306167;22;20006;-77
2022/01/27 06:59:40;;;;;;;22.27;16.67;;;;;;;3.10;53.83;100378.94;6306005;22;19999;-77
2022/01/27 07:02:06;;;;;;;19.50;15.13;;;;;;;3.46;53.67;100440.72;6306687;22;20056;-77
2022/01/27 07:04:32;;;;;;;18.47;13.57;;;;;;;3.58;53.66;100455.50;6306860;22;20437;-77
2022/01/27 07:06:57;;;;;;;20.00;14.13;;;;;;;3.38;54.07;100411.72;6279918;22;20078;-77
2022/01/27 07:09:23;;;;;;;16.50;13.03;;;;;;;3.50;53.71;100431.72;6307149;22;20075;-77
2022/01/27 07:11:48;;;;;;;16.73;12.90;;;;;;;3.30;54.19;100403.63;6306492;22;20007;-77
2022/01/27 07:14:14;;;;;;;18.73;13.40;;;;;;;3.57;53.64;100439.94;6305990;22;20015;-77
2022/01/27 07:16:39;;;;;;;14.73;10.63;;;;;;;3.21;53.88;100396.44;6306343;22;20049;-77
2022/01/27 07:19:04;;;;;;;14.07;9.53;;;;;;;3.68;53.71;100459.09;6306541;22;19999;-77
2022/01/27 07:21:30;;;;;;;16.10;10.73;;;;;;;3.71;53.51;100460.66;6279072;22;20003;-78
2022/01/27 07:23:55;;;;;;;15.00;10.33;;;;;;;3.02;53.61;100345.59;6305928;22;20002;-78
2022/01/27 07:26:25;;;;;;;15.50;11.00;;;;;;;3.52;53.63;100437.66;6306255;22;19998;-78
2022/01/27 07:28:54;;;;;;;12.93;9.93;;;;;;;3.57;53.33;100425.09;6282024;22;20002;-77
2022/01/27 07:31:20;;;;;;;12.20;9.00;;;;;;;3.88;53.32;100467.28;6311360;22;20101;-78
2022/01/27 07:33:51;;;;;;;10.00;7.97;;;;;;;3.90;53.60;100460.16;6311715;22;20013;-78
2022/01/27 07:36:16;;;;;;;13.77;9.40;;;;;;;3.92;53.01;100464.34;6315529;22;19999;-79
2022/01/27 07:38:42;;;;;;;13.97;9.40;;;;;;;2.42;53.22;100217.81;6319312;22;19998;-79
2022/01/27 07:41:08;;;;;;;13.10;10.07;;;;;;;3.34;53.02;100361.53;6320751;22;20070;-79
2022/01/27 07:43:33;;;;;;;13.80;10.03;;;;;;;3.70;52.90;100444.16;6286460;22;19995;-78
2022/01/27 07:46:00;;;;;;;13.83;10.17;;;;;;;3.82;52.86;100445.06;6308897;22;19999;-78
2022/01/27 07:48:26;;;;;;;15.40;10.70;;;;;;;3.53;52.88;100410.59;6308689;22;19999;-78
2022/01/27 07:50:51;;;;;;;15.73;10.43;;;;;;;3.75;52.80;100438.63;6310174;22;20003;-78
2022/01/27 07:53:17;;;;;;;20.23;13.20;;;;;;;3.98;52.63;100470.88;6309505;22;20063;-78
2022/01/27 07:55:42;;;;;;;14.83;11.70;;;;;;;3.49;52.87;100390.88;6309095;22;20078;-78
2022/01/27 07:58:08;;;;;;;15.07;10.77;;;;;;;3.66;52.78;100413.16;6311213;22;20062;-78
2022/01/27 08:00:33;;;;;;;16.57;10.80;;;;;;;3.78;52.73;100420.94;6307141;22;19996;-77
2022/01/27 08:02:58;;;;;;;16.43;10.60;;;;;;;3.93;52.45;100437.25;6306115;22;20046;-78
2022/01/27 08:05:24;;;;;;;14.27;10.03;;;;;;;3.71;52.44;100397.97;6307561;22;20504;-78
2022/01/27 08:07:49;;;;;;;12.37;9.83;;;;;;;4.21;52.48;100474.41;6305018;22;20018;-78
2022/01/27 08:10:15;;;;;;;11.70;8.47;;;;;;;3.90;52.22;100421.81;6305847;22;19995;-78
2022/01/27 08:12:44;;;;;;;11.97;9.10;;;;;;;4.01;52.44;100439.31;6305311;22;20425;-78
2022/01/27 08:15:18;;;;;;;11.60;8.80;;;;;;;4.02;52.40;100422.69;6307052;22;19999;-78
2022/01/27 08:17:43;;;;;;;13.33;9.07;;;;;;;3.94;52.10;100410.19;6306822;22;19999;-78
2022/01/27 08:20:09;;;;;;;11.60;9.40;;;;;;;3.75;51.84;100370.72;6307009;22;20057;-77
2022/01/27 08:22:39;;;;;;;8.97;6.30;;;;;;;4.50;51.45;100493.16;6279857;22;19995;-77
2022/01/27 08:25:07;;;;;;;8.97;7.47;;;;;;;4.44;51.88;100489.19;6318917;22;20082;-77
2022/01/27 08:27:33;;;;;;;8.33;6.80;;;;;;;4.33;51.62;100455.19;6328552;22;20019;-77
2022/01/27 08:30:04;;;;;;;10.00;7.77;;;;;;;4.53;51.46;100498.16;6322202;22;20010;-76
2022/01/27 08:35:20;;;;;;;13.97;8.47;;;;;;;4.56;51.30;100493.53;6285256;22;20007;-77
2022/01/27 08:37:47;;;;;;;10.13;7.67;;;;;;;4.32;50.95;100472.66;6305036;22;19999;-77
2022/01/27 08:40:14;;;;;;;10.23;7.93;;;;;;;4.61;50.94;100503.66;6303828;22;20491;-77
2022/01/27 08:42:43;;;;;;;11.20;7.37;;;;;;;4.53;51.18;100491.16;6278738;22;19999;-77
2022/01/27 08:45:15;;;;;;;10.73;7.67;;;;;;;4.60;51.09;100507.22;6306455;22;20070;-77
2022/01/27 08:47:42;;;;;;;11.43;7.78;;;;;;;4.74;50.72;100509.59;6306233;22;20412;-77
2022/01/27 08:50:09;;;;;;;12.10;7.67;;;;;;;4.85;50.70;100488.69;6305037;22;20078;-77
2022/01/27 08:52:36;;;;;;;14.30;8.40;;;;;;;4.29;50.49;100391.00;6304553;22;20010;-77
2022/01/27 08:55:02;;;;;;;10.73;6.60;;;;;;;4.71;50.40;100458.34;6304601;22;20003;-77
2022/01/27 08:57:28;;;;;;;8.07;6.40;;;;;;;4.92;50.12;100487.25;6305133;22;19995;-77
2022/01/27 08:59:53;;;;;;;9.70;6.70;;;;;;;4.48;50.16;100417.44;6305180;22;20010;-77
2022/01/27 09:02:20;;;;;;;10.20;7.00;;;;;;;4.61;50.05;100453.94;6304831;22;20429;-77
2022/01/27 09:04:47;;;;;;;10.37;7.60;;;;;;;4.21;50.24;100388.16;6304890;22;20364;-77
2022/01/27 09:07:15;;;;;;;15.10;9.70;;;;;;;4.85;50.17;100490.47;6304782;22;20003;-77
2022/01/27 09:09:41;;;;;;;15.73;9.30;;;;;;;4.52;50.36;100431.13;6304328;22;20026;-76
2022/01/27 09:12:07;;;;;;;12.23;7.80;;;;;;;4.45;50.34;100415.03;6302904;22;20402;-77
2022/01/27 09:14:33;;;;;;;15.60;9.03;;;;;;;4.55;50.15;100431.72;6272967;22;20094;-77
2022/01/27 09:16:58;;;;;;;17.00;11.73;;;;;;;5.00;50.01;100482.25;6304667;22;19996;-77
2022/01/27 09:19:26;;;;;;;15.13;9.17;;;;;;;4.86;49.84;100429.34;6304757;22;20002;-77
2022/01/27 09:21:54;;;;;;;9.77;7.93;;;;;;;5.29;49.68;100482.63;6304794;22;20133;-77
2022/01/27 09:24:26;;;;;;;10.33;6.97;;;;;;;5.53;49.32;100479.84;6305179;22;20026;-76
2022/01/27 09:26:59;;;;;;;9.67;6.40;;;;;;;5.64;49.09;100481.59;6304857;22;20056;-77
2022/01/27 09:29:25;;;;;;;10.20;5.90;;;;;;;5.20;48.61;100410.06;6304031;22;20027;-77
2022/01/27 09:31:51;;;;;;;9.47;6.03;;;;;;;5.67;48.66;100483.97;6304007;22;20173;-77
2022/01/27 09:34:18;;;;;;;10.93;6.27;;;;;;;5.19;48.37;100421.44;6304633;22;19999;-77
2022/01/27 09:36:44;;;;;;;8.30;5.40;;;;;;;5.26;48.99;100455.84;6304014;22;20007;-78
2022/01/27 09:39:10;;;;;;;10.83;6.63;;;;;;;5.15;48.79;100419.19;6304833;22;20352;-77
2022/01/27 09:41:38;;;;;;;8.73;7.03;;;;;;;5.59;48.78;100475.91;6277689;22;19996;-77
2022/01/27 09:44:07;;;;;;;8.63;6.20;;;;;;;5.54;49.13;100465.78;6276355;22;20041;-77
2022/01/27 09:46:33;;;;;;;10.10;7.13;;;;;;;5.54;48.99;100450.06;6304138;22;20035;-77
2022/01/27 09:49:07;;;;;;;9.47;6.30;;;;;;;5.49;48.70;100426.03;6276316;22;20054;-77
2022/01/27 09:51:41;;;;;;;9.90;6.13;;;;;;;5.70;48.46;100454.91;6302084;22;20049;-77
2022/01/27 09:54:07;;;;;;;11.20;6.17;;;;;;;5.71;48.41;100438.22;6300555;22;20030;-77
2022/01/27 09:56:34;;;;;;;10.00;7.23;;;;;;;5.83;48.24;100452.13;6274939;22;20467;-78
2022/01/27 09:59:00;;;;;;;9.93;5.93;;;;;;;5.62;48.44;100413.59;6301648;22;20022;-78
2022/01/27 10:01:25;;;;;;;9.77;6.47;;;;;;;5.78;47.99;100456.91;6302942;22;19991;-78
2022/01/27 10:03:52;;;;;;;10.30;6.83;;;;;;;5.38;48.24;100386.78;6276743;22;20010;-77
2022/01/27 10:06:18;;;;;;;9.00;6.03;;;;;;;5.83;47.86;100444.25;6303747;22;20045;-78
2022/01/27 10:08:44;;;;;;;12.53;7.33;;;;;;;5.39;47.65;100375.34;6303197;22;20041;-78
2022/01/27 10:11:17;;;;;;;9.87;6.57;;;;;;;5.82;47.87;100445.22;6305759;22;19999;-78
2022/01/27 10:13:44;;;;;;;10.27;6.20;;;;;;;5.74;47.76;100432.72;6277119;22;20023;-78
2022/01/27 10:16:34;;;;;;;10.07;6.30;;;;;;;5.76;47.92;100420.34;6306089;22;19995;-78
2022/01/27 10:19:07;;;;;;;6.97;5.73;;;;;;;5.88;47.63;100436.84;6305629;22;19999;-77
2022/01/27 10:21:34;;;;;;;12.03;6.97;;;;;;;5.91;47.60;100445.31;6278049;22;20085;-78
2022/01/27 10:24:14;;;;;;;11.63;8.00;;;;;;;5.96;47.57;100431.88;6280001;22;20003;-78
2022/01/27 10:26:46;;;;;;;11.57;6.03;;;;;;;5.84;47.82;100403.97;6278574;22;19999;-78
2022/01/27 10:29:29;;;;;;;7.60;5.40;;;;;;;6.07;47.63;100425.72;6306238;22;20066;-78
2022/01/27 10:32:08;;;;;;;8.30;5.40;;;;;;;5.98;47.36;100408.97;6306108;22;20030;-78
2022/01/27 10:34:54;;;;;;;9.17;5.37;;;;;;;6.05;46.50;100410.97;6306418;22;20003;-78
2022/01/27 10:37:20;;;;;;;16.47;7.50;;;;;;;5.64;46.89;100337.50;6305459;22;20361;-78
2022/01/27 10:39:47;;;;;;;7.97;5.20;;;;;;;5.54;46.89;100308.63;6306211;22;20000;-79
2022/01/27 10:42:12;;;;;;;10.03;5.13;;;;;;;6.13;46.82;100381.47;6306849;22;19991;-78
2022/01/27 10:44:45;;;;;;;10.50;6.13;;;;;;;6.07;46.92;100379.38;6279053;22;20003;-77
2022/01/27 10:47:19;;;;;;;10.83;6.60;;;;;;;5.43;46.08;100266.78;6306148;22;20007;-77
2022/01/27 10:49:52;;;;;;;8.70;4.87;;;;;;;5.98;46.45;100362.63;6306188;22;20515;-79
2022/01/27 10:52:28;;;;;;;7.87;5.27;;;;;;;5.99;46.35;100343.31;6306141;22;20027;-78
2022/01/27 10:54:59;;;;;;;19.77;9.93;;;;;;;6.23;46.28;100371.03;6306367;22;19999;-77
2022/01/27 10:57:26;;;;;;;6.45;4.85;;;;;;;6.12;46.04;100348.34;6306234;22;20453;-78
2022/01/27 11:00:14;;;;;;;9.30;6.00;;;;;;;6.26;45.48;100362.91;6306366;22;19999;-78
2022/01/27 11:02:52;;;;;;;14.90;7.70;;;;;;;6.04;45.33;100330.66;6279357;22;19996;-78
2022/01/27 11:05:22;;;;;;;15.13;8.80;;;;;;;6.37;45.79;100383.81;6306573;22;20005;-78
2022/01/27 11:07:48;;;;;;;14.17;8.23;;;;;;;6.33;45.80;100375.38;6306481;22;20018;-80
2022/01/27 11:10:18;;;;;;;17.37;10.87;;;;;;;6.40;45.66;100383.56;6306547;22;20097;-77
2022/01/27 11:12:45;;;;;;;19.17;11.50;;;;;;;6.51;45.37;100385.25;6306170;22;19999;-78
2022/01/27 11:15:12;;;;;;;18.63;10.00;;;;;;;6.31;45.71;100339.75;6278431;22;20010;-78
2022/01/27 11:17:39;;;;;;;16.77;10.40;;;;;;;6.43;45.57;100350.97;6305452;22;20006;-79
2022/01/27 11:20:22;;;;;;;10.30;6.80;;;;;;;6.61;45.59;100370.38;6306242;22;19995;-79
2022/01/27 11:27:50;;;;;;;13.57;8.27;;;;;;;6.66;44.76;100378.69;6306194;22;20030;-79
2022/01/27 11:30:40;;;;;;;7.37;6.10;;;;;;;6.35;44.77;100323.63;6278530;22;20003;-79
2022/01/27 11:33:13;;;;;;;10.30;7.40;;;;;;;6.72;44.63;100380.81;6306000;22;20352;-79
2022/01/27 11:35:39;;;;;;;8.90;6.80;;;;;;;6.65;44.78;100383.13;6306046;22;20346;-78
2022/01/27 11:38:08;;;;;;;9.13;6.80;;;;;;;6.65;45.12;100370.00;6278236;22;19995;-78
2022/01/27 11:40:39;;;;;;;18.47;10.53;;;;;;;6.18;44.57;100297.19;6305737;22;19999;-78
2022/01/27 11:43:06;;;;;;;13.48;8.25;;;;;;;6.71;45.16;100379.16;6278727;22;20003;-77
2022/01/27 11:45:36;;;;;;;10.60;7.37;;;;;;;6.69;44.25;100374.03;6305666;22;19995;-77
2022/01/27 11:48:08;;;;;;;16.73;7.20;;;;;;;6.62;44.86;100369.44;6278807;22;20065;-77
2022/01/27 11:50:54;;;;;;;13.52;7.45;;;;;;;6.32;44.88;100308.16;6305795;22;20502;-79
2022/01/27 11:53:35;;;;;;;9.80;7.73;;;;;;;6.72;43.79;100362.44;6278296;22;20014;-79
2022/01/27 11:56:15;;;;;;;10.63;6.93;;;;;;;6.38;44.70;100325.97;6278155;22;20082;-77
2022/01/27 11:58:46;;;;;;;7.53;6.37;;;;;;;6.64;44.36;100362.25;6305514;22;19995;-77
2022/01/27 12:01:30;;;;;;;8.93;6.53;;;;;;;6.59;43.83;100357.41;6306177;22;20074;-77
2022/01/27 12:04:05;;;;;;;14.23;8.63;;;;;;;6.58;44.61;100352.28;6305979;22;20014;-80
2022/01/27 12:06:40;;;;;;;15.20;8.37;;;;;;;6.17;44.56;100298.16;6278759;22;20056;-78
2022/01/27 12:09:20;;;;;;;10.00;5.50;;;;;;;6.50;44.06;100346.88;6305409;22;20498;-78
2022/01/27 12:11:49;;;;;;;12.70;8.20;;;;;;;6.41;44.30;100329.31;6278437;22;20057;-78
2022/01/27 12:14:18;;;;;;;13.80;8.30;;;;;;;6.12;44.35;100289.84;6305732;22;20431;-78
2022/01/27 12:19:13;;;;;;;11.10;7.50;;;;;;;6.43;44.42;100333.47;6305900;22;20082;-79
2022/01/27 12:21:39;;;;;;;7.97;5.97;;;;;;;6.56;44.49;100341.09;6305439;22;19991;-80